Time;durP1;ratioP1;P1;durP2;ratioP2;P2;SDS_P1;SDS_P2;PMS_P1;PMS_P2;Temp;Humidity;BMP_temperature;BMP_pressure;BME280_temperature;BME280_humidity;BME280_pressure;Samples;Min_cycle;Max_cycle;Signal;HPM_P1;HPM_P2
2022/01/20 00:00:22;;;;;;;6.08;3.60;;;4.00;99.90;;;;;;1819568;78;21094;-74
2022/01/20 00:02:59;;;;;;;4.85;3.65;;;4.00;99.90;;;;;;1785813;80;21090;-73
2022/01/20 00:08:11;;;;;;;11.28;3.85;;;4.00;99.90;;;;;;1820351;78;21172;-75
2022/01/20 00:27:23;;;;;;;4.95;3.87;;;3.90;99.90;;;;;;1767499;80;21213;-73
2022/01/20 00:32:23;;;;;;;4.45;4.05;;;3.90;99.90;;;;;;1836633;78;21122;-74
2022/01/20 00:37:32;;;;;;;4.45;3.50;;;3.70;99.90;;;;;;1836558;78;21160;-72
2022/01/20 00:39:59;;;;;;;3.72;3.42;;;3.70;99.90;;;;;;1827060;76;21168;-73
2022/01/20 00:42:26;;;;;;;4.42;3.72;;;3.70;99.90;;;;;;1808302;78;21250;-74
2022/01/20 00:44:54;;;;;;;5.62;3.67;;;3.80;99.90;;;;;;1807470;78;21046;-72
2022/01/20 00:47:21;;;;;;;5.72;4.00;;;3.80;99.90;;;;;;1821505;78;21045;-72
2022/01/20 00:49:49;;;;;;;3.90;3.50;;;3.80;99.90;;;;;;1817005;79;21214;-73
2022/01/20 00:52:16;;;;;;;3.72;3.30;;;3.80;99.90;;;;;;1817000;79;21065;-72
2022/01/20 00:54:43;;;;;;;5.22;4.00;;;3.80;99.90;;;;;;1817025;79;21489;-72
2022/01/20 00:57:11;;;;;;;4.45;3.77;;;3.80;99.90;;;;;;1817061;79;21184;-72
2022/01/20 00:59:38;;;;;;;4.10;3.50;;;3.90;99.90;;;;;;1817051;79;21057;-73
2022/01/20 01:02:08;;;;;;;4.70;3.47;;;3.90;99.90;;;;;;1817064;79;21057;-74
2022/01/20 01:04:36;;;;;;;5.33;4.10;;;3.90;99.90;;;;;;1817230;79;21104;-73
2022/01/20 01:09:32;;;;;;;5.37;3.58;;;3.90;99.90;;;;;;1817091;79;21248;-72
2022/01/20 01:12:04;;;;;;;5.28;3.47;;;3.90;99.90;;;;;;1816912;79;21034;-73
2022/01/20 01:14:33;;;;;;;4.83;3.85;;;3.80;99.90;;;;;;1816861;79;21062;-74
2022/01/20 01:20:09;;;;;;;4.95;3.75;;;4.00;99.90;;;;;;1817011;79;21426;-74
2022/01/20 01:24:46;;;;;;;4.75;3.90;;;3.80;99.90;;;;;;1817342;79;21156;-75
2022/01/20 01:27:14;;;;;;;5.20;4.05;;;3.80;99.90;;;;;;1817290;79;21185;-74
2022/01/20 01:30:04;;;;;;;5.35;4.17;;;3.80;99.90;;;;;;1817341;79;21189;-74
2022/01/20 01:32:13;;;;;;;4.87;3.80;;;3.80;99.90;;;;;;1817344;79;21097;-75
2022/01/20 01:34:42;;;;;;;4.72;3.90;;;3.70;99.90;;;;;;1817188;78;21125;-74
2022/01/20 01:37:25;;;;;;;9.30;3.90;;;3.50;99.90;;;;;;1817335;79;21081;-74
2022/01/20 01:39:37;;;;;;;4.70;3.90;;;3.40;99.90;;;;;;1817561;78;21145;-74
2022/01/20 01:42:05;;;;;;;4.85;3.27;;;3.30;99.90;;;;;;1817420;79;21500;-74
2022/01/20 01:44:32;;;;;;;4.83;3.02;;;3.20;99.90;;;;;;1817500;79;21038;-74
2022/01/20 01:46:59;;;;;;;7.42;3.45;;;3.30;99.90;;;;;;1817403;79;21064;-75
2022/01/20 01:49:27;;;;;;;3.72;3.37;;;3.40;99.90;;;;;;1817426;79;21455;-74
2022/01/20 01:51:54;;;;;;;5.35;3.80;;;3.40;99.90;;;;;;1817113;79;21450;-74
2022/01/20 01:54:21;;;;;;;5.28;3.77;;;3.40;99.90;;;;;;1816866;79;21061;-73
2022/01/20 01:56:49;;;;;;;5.70;4.17;;;3.30;99.90;;;;;;1816860;79;21053;-73
2022/01/20 01:59:16;;;;;;;4.37;3.98;;;3.20;99.90;;;;;;1816929;79;21449;-74
2022/01/20 02:01:43;;;;;;;4.40;3.85;;;3.20;99.90;;;;;;1816961;79;21050;-74
2022/01/20 02:04:17;;;;;;;6.47;4.00;;;3.20;99.90;;;;;;1816800;79;21128;-74
2022/01/20 02:17:49;;;;;;;5.85;3.85;;;3.10;99.90;;;;;;1816851;79;21094;-74
2022/01/20 02:20:13;;;;;;;5.60;4.08;;;3.30;99.90;;;;;;1816998;79;21090;-74
2022/01/20 02:22:42;;;;;;;6.30;3.75;;;3.30;99.90;;;;;;1816891;79;21082;-74
2022/01/20 02:25:24;;;;;;;3.83;3.47;;;3.20;99.90;;;;;;1802797;77;21164;-74
2022/01/20 02:27:51;;;;;;;3.22;2.95;;;3.30;99.90;;;;;;1809883;79;21054;-74
2022/01/20 02:30:20;;;;;;;5.22;3.35;;;3.30;99.90;;;;;;1816821;79;21135;-74
2022/01/20 02:32:55;;;;;;;3.92;3.40;;;3.40;99.90;;;;;;1816875;79;21130;-75
2022/01/20 02:35:23;;;;;;;6.03;3.47;;;3.40;99.90;;;;;;1816965;79;21185;-74
2022/01/20 02:37:57;;;;;;;4.53;3.62;;;3.40;99.90;;;;;;1816864;79;21180;-74
2022/01/20 02:45:52;;;;;;;3.00;2.75;;;3.40;99.90;;;;;;1817011;79;21082;-74
2022/01/20 02:48:19;;;;;;;3.60;3.30;;;3.30;99.90;;;;;;1816935;79;21116;-73
2022/01/20 02:50:47;;;;;;;3.52;2.80;;;3.30;99.90;;;;;;1816763;79;21077;-74
2022/01/20 02:53:14;;;;;;;4.70;3.55;;;3.20;99.90;;;;;;1817020;79;21082;-74
2022/01/20 02:55:41;;;;;;;3.55;3.15;;;3.20;99.90;;;;;;1816832;79;21095;-74
2022/01/20 02:58:09;;;;;;;5.12;3.58;;;3.20;99.90;;;;;;1816912;79;21466;-74
2022/01/20 03:00:36;;;;;;;3.35;3.02;;;3.40;99.90;;;;;;1816804;79;21442;-74
2022/01/20 03:03:03;;;;;;;5.20;3.37;;;3.30;99.90;;;;;;1816972;79;21112;-74
2022/01/20 03:05:35;;;;;;;8.63;3.00;;;3.30;99.90;;;;;;1816897;79;21516;-73
2022/01/20 03:08:02;;;;;;;3.35;2.75;;;3.30;99.90;;;;;;1816779;79;21482;-75
2022/01/20 03:10:30;;;;;;;3.50;2.92;;;3.30;99.90;;;;;;1817031;79;21453;-74
2022/01/20 03:12:58;;;;;;;3.47;3.17;;;3.40;99.90;;;;;;1816804;79;21050;-73
2022/01/20 03:15:25;;;;;;;4.65;3.40;;;3.40;99.90;;;;;;1817027;79;21160;-73
2022/01/20 03:17:53;;;;;;;3.83;3.27;;;3.40;99.90;;;;;;1816892;79;21139;-74
2022/01/20 03:20:20;;;;;;;4.25;3.45;;;3.40;99.90;;;;;;1817091;79;21057;-74
2022/01/20 03:22:47;;;;;;;4.78;3.40;;;3.40;99.90;;;;;;1816932;79;21528;-74
2022/01/20 03:25:15;;;;;;;3.30;3.00;;;3.40;99.90;;;;;;1817042;79;21131;-74
2022/01/20 03:27:42;;;;;;;3.52;2.98;;;3.50;99.90;;;;;;1817019;79;21049;-74
2022/01/20 03:30:11;;;;;;;4.22;3.00;;;3.50;99.90;;;;;;1816984;79;21151;-74
2022/01/20 03:32:39;;;;;;;5.37;2.90;;;3.50;99.90;;;;;;1817053;79;21548;-74
2022/01/20 03:35:09;;;;;;;3.20;2.70;;;3.50;99.90;;;;;;1816947;79;21520;-74
2022/01/20 03:37:36;;;;;;;4.40;3.12;;;3.50;99.90;;;;;;1817174;79;21058;-75
2022/01/20 03:40:04;;;;;;;3.27;2.98;;;3.50;99.90;;;;;;1817053;79;21062;-74
2022/01/20 03:42:32;;;;;;;3.08;2.77;;;3.50;99.90;;;;;;1816957;79;21453;-74
2022/01/20 03:44:59;;;;;;;3.35;3.02;;;3.50;99.90;;;;;;1817035;79;21135;-73
2022/01/20 03:47:26;;;;;;;4.70;2.92;;;3.50;99.90;;;;;;1816947;79;21112;-74
2022/01/20 03:52:29;;;;;;;3.37;2.67;;;3.50;99.90;;;;;;1816904;79;21152;-74
2022/01/20 03:54:56;;;;;;;2.77;2.58;;;3.50;99.90;;;;;;1816921;79;21442;-74
2022/01/20 03:57:23;;;;;;;11.78;2.72;;;3.50;99.90;;;;;;1816947;79;21116;-74
2022/01/20 03:59:51;;;;;;;3.20;2.87;;;3.50;99.90;;;;;;1816925;79;21461;-73
2022/01/20 04:02:18;;;;;;;3.22;2.92;;;3.50;99.90;;;;;;1817017;79;21442;-74
2022/01/20 04:04:45;;;;;;;3.67;3.30;;;3.50;99.90;;;;;;1816987;79;21164;-74
2022/01/20 04:07:13;;;;;;;3.40;2.98;;;3.50;99.90;;;;;;1816914;79;21057;-74
2022/01/20 04:09:40;;;;;;;4.53;4.05;;;3.40;99.90;;;;;;1817083;79;21461;-74
2022/01/20 04:12:08;;;;;;;7.65;5.28;;;3.40;99.90;;;;;;1816940;79;21097;-75
2022/01/20 04:14:44;;;;;;;10.30;4.92;;;3.40;99.90;;;;;;1816922;79;21108;-74
2022/01/20 04:17:06;;;;;;;3.80;3.08;;;3.50;99.90;;;;;;1816924;79;21177;-74
2022/01/20 04:19:33;;;;;;;2.15;1.92;;;3.60;99.90;;;;;;1816966;79;21248;-74
2022/01/20 04:22:01;;;;;;;1.77;1.67;;;3.60;99.90;;;;;;1817063;79;21116;-74
2022/01/20 04:24:29;;;;;;;2.45;2.10;;;3.60;99.90;;;;;;1816969;79;21062;-74
2022/01/20 04:26:57;;;;;;;1.60;1.50;;;3.50;99.90;;;;;;1817031;79;21089;-75
2022/01/20 04:29:25;;;;;;;1.82;1.57;;;3.50;99.90;;;;;;1817064;79;21137;-74
2022/01/20 04:31:54;;;;;;;2.58;1.50;;;3.40;99.90;;;;;;1816985;78;21062;-74
2022/01/20 04:34:21;;;;;;;1.67;1.40;;;3.50;99.90;;;;;;1817104;79;21470;-74
2022/01/20 04:36:51;;;;;;;4.62;1.65;;;3.60;99.90;;;;;;1817175;79;21112;-74
2022/01/20 04:39:21;;;;;;;1.27;1.07;;;3.60;99.90;;;;;;1817012;79;21077;-74
2022/01/20 04:41:48;;;;;;;1.90;1.77;;;3.70;99.90;;;;;;1817055;79;21098;-74
2022/01/20 04:44:32;;;;;;;2.52;1.50;;;3.60;99.90;;;;;;1816996;79;21203;-74
2022/01/20 04:46:54;;;;;;;1.52;1.42;;;3.60;99.90;;;;;;1816632;79;21085;-74
2022/01/20 04:57:25;;;;;;;1.10;1.10;;;3.70;99.90;;;;;;1816926;79;21184;-75
2022/01/20 04:59:54;;;;;;;1.50;1.40;;;3.70;99.90;;;;;;1817125;79;21478;-74
2022/01/20 05:02:24;;;;;;;2.42;1.50;;;3.80;99.90;;;;;;1817084;79;21136;-74
2022/01/20 05:04:51;;;;;;;1.32;1.22;;;3.80;99.90;;;;;;1817137;79;21114;-75
2022/01/20 05:07:23;;;;;;;1.40;1.30;;;3.80;99.90;;;;;;1818866;79;21062;-73
2022/01/20 05:09:47;;;;;;;2.17;1.57;;;3.80;99.90;;;;;;1816984;79;21434;-72
2022/01/20 05:12:20;;;;;;;1.35;1.25;;;3.80;99.90;;;;;;1816967;79;21517;-74
2022/01/20 05:14:44;;;;;;;1.77;1.25;;;3.70;99.90;;;;;;1816894;79;21081;-72
2022/01/20 05:17:11;;;;;;;1.45;1.35;;;3.70;99.90;;;;;;1816949;79;21081;-74
2022/01/20 05:19:39;;;;;;;1.95;1.55;;;3.70;99.90;;;;;;1816989;79;21097;-74
2022/01/20 05:22:06;;;;;;;1.30;1.20;;;3.70;99.90;;;;;;1816877;79;21180;-75
2022/01/20 05:24:33;;;;;;;3.65;1.42;;;3.70;99.90;;;;;;1818885;79;21116;-74
2022/01/20 05:27:01;;;;;;;2.67;1.67;;;3.70;99.90;;;;;;1816979;79;21042;-73
2022/01/20 05:29:28;;;;;;;1.80;1.60;;;3.70;99.90;;;;;;1817014;79;21119;-73
2022/01/20 05:31:55;;;;;;;4.00;1.50;;;3.60;99.90;;;;;;1818807;79;21049;-73
2022/01/20 05:34:23;;;;;;;1.50;1.40;;;3.50;99.90;;;;;;1816965;79;21462;-73
2022/01/20 05:36:50;;;;;;;1.57;1.47;;;3.50;99.90;;;;;;1816922;79;21065;-73
2022/01/20 05:39:17;;;;;;;2.25;1.60;;;3.60;99.90;;;;;;1817009;79;21116;-74
2022/01/20 05:41:44;;;;;;;2.27;1.52;;;3.60;99.90;;;;;;1816878;79;21528;-73
2022/01/20 05:44:12;;;;;;;1.60;1.50;;;3.50;99.90;;;;;;1817006;79;21061;-73
2022/01/20 05:46:45;;;;;;;1.67;1.57;;;3.60;99.90;;;;;;1816991;79;21062;-73
2022/01/20 05:49:11;;;;;;;2.70;1.80;;;3.50;99.90;;;;;;1816890;79;21196;-74
2022/01/20 05:51:40;;;;;;;1.50;1.40;;;3.60;99.90;;;;;;1817063;79;21152;-74
2022/01/20 05:54:07;;;;;;;2.25;1.30;;;3.50;99.90;;;;;;1797504;77;21078;-73
2022/01/20 05:56:34;;;;;;;1.57;1.30;;;3.60;99.90;;;;;;1823537;78;21125;-74
2022/01/20 05:59:02;;;;;;;8.33;1.65;;;3.70;99.90;;;;;;1816940;79;21057;-73
2022/01/20 06:01:32;;;;;;;1.80;1.37;;;3.70;99.90;;;;;;1816914;79;21061;-74
2022/01/20 06:03:58;;;;;;;3.45;1.67;;;3.80;99.90;;;;;;1816828;78;21082;-74
2022/01/20 06:06:25;;;;;;;2.27;1.70;;;3.80;99.90;;;;;;1816986;79;21112;-74
2022/01/20 06:08:53;;;;;;;1.65;1.55;;;3.70;99.90;;;;;;1817002;79;21078;-73
2022/01/20 06:11:20;;;;;;;2.37;1.77;;;3.80;99.90;;;;;;1816908;79;21104;-74
2022/01/20 06:13:47;;;;;;;9.45;1.95;;;3.70;99.90;;;;;;1816881;79;21575;-75
2022/01/20 06:16:15;;;;;;;1.87;1.75;;;3.80;99.90;;;;;;1817049;79;21049;-75
2022/01/20 06:18:42;;;;;;;4.15;2.12;;;3.70;99.90;;;;;;1817039;79;21179;-75
2022/01/20 06:21:09;;;;;;;4.17;2.10;;;3.80;99.90;;;;;;1817127;79;21450;-73
2022/01/20 06:23:37;;;;;;;2.40;1.98;;;3.60;99.90;;;;;;1816872;79;21109;-74
2022/01/20 06:26:05;;;;;;;2.47;2.27;;;3.60;99.90;;;;;;1816880;79;21112;-73
2022/01/20 06:28:33;;;;;;;3.20;2.50;;;3.60;99.90;;;;;;1817120;79;21090;-74
2022/01/20 06:31:00;;;;;;;3.65;2.10;;;3.60;99.90;;;;;;1814589;79;21121;-75
2022/01/20 06:33:28;;;;;;;2.72;1.87;;;3.80;99.90;;;;;;1813807;78;21201;-73
2022/01/20 06:35:55;;;;;;;2.08;1.98;;;3.80;99.90;;;;;;1816709;79;21410;-74
2022/01/20 06:38:23;;;;;;;2.35;1.92;;;3.80;99.90;;;;;;1816750;79;21150;-74
2022/01/20 06:40:50;;;;;;;2.47;2.20;;;3.80;99.90;;;;;;1816784;79;21065;-75
2022/01/20 06:43:18;;;;;;;2.52;2.00;;;3.70;99.90;;;;;;1816862;79;21055;-75
2022/01/20 06:45:45;;;;;;;3.20;2.17;;;3.70;99.90;;;;;;1816792;79;21073;-74
2022/01/20 06:48:12;;;;;;;2.90;2.60;;;3.70;99.90;;;;;;1816966;79;21124;-75
2022/01/20 06:50:39;;;;;;;2.85;2.12;;;3.60;99.90;;;;;;1816855;79;21112;-74
2022/01/20 06:53:07;;;;;;;4.80;2.40;;;3.60;99.90;;;;;;1816785;79;21591;-74
2022/01/20 06:55:35;;;;;;;3.42;1.95;;;3.70;99.90;;;;;;1816839;79;21057;-75
2022/01/20 06:58:02;;;;;;;3.40;1.75;;;3.80;99.90;;;;;;1816919;79;21152;-74
2022/01/20 07:00:29;;;;;;;4.05;2.62;;;3.80;99.90;;;;;;1816920;79;21053;-75
2022/01/20 07:02:57;;;;;;;4.60;2.42;;;3.90;99.90;;;;;;1816978;79;21221;-74
2022/01/20 07:05:24;;;;;;;7.62;2.70;;;3.90;99.90;;;;;;1816910;79;21042;-73
2022/01/20 07:07:51;;;;;;;7.17;1.98;;;3.90;99.90;;;;;;1816785;79;21128;-75
2022/01/20 07:10:19;;;;;;;3.33;2.20;;;3.90;99.90;;;;;;1817197;79;21042;-74
2022/01/20 07:12:46;;;;;;;4.55;2.08;;;3.90;99.90;;;;;;1816902;79;21093;-74
2022/01/20 07:15:15;;;;;;;5.28;1.85;;;3.90;99.90;;;;;;1816913;79;21131;-73
2022/01/20 07:17:42;;;;;;;3.02;1.80;;;3.90;99.90;;;;;;1816868;79;21462;-74
2022/01/20 07:20:11;;;;;;;3.20;1.80;;;3.90;99.90;;;;;;1816704;79;21503;-74
2022/01/20 07:22:38;;;;;;;1.67;1.55;;;3.80;99.90;;;;;;1816836;79;21061;-74
2022/01/20 07:25:06;;;;;;;3.55;1.52;;;3.80;99.90;;;;;;1816997;79;21481;-75
2022/01/20 07:27:33;;;;;;;3.42;1.80;;;3.60;99.90;;;;;;1816990;79;21124;-74
2022/01/20 07:30:00;;;;;;;4.10;1.82;;;3.60;99.90;;;;;;1816829;79;21062;-74
2022/01/20 07:32:28;;;;;;;4.40;2.22;;;3.50;99.90;;;;;;1817198;79;21085;-75
2022/01/20 07:34:55;;;;;;;1.80;1.62;;;3.40;99.90;;;;;;1817135;79;21062;-74
2022/01/20 07:37:22;;;;;;;1.90;1.70;;;3.40;99.90;;;;;;1817287;79;21422;-74
2022/01/20 07:39:50;;;;;;;1.92;1.40;;;3.30;99.90;;;;;;1817120;79;21057;-75
2022/01/20 07:42:17;;;;;;;2.00;1.70;;;3.20;99.90;;;;;;1817106;79;21583;-76
2022/01/20 07:44:46;;;;;;;6.87;1.75;;;3.30;99.90;;;;;;1817203;79;21152;-75
2022/01/20 07:47:13;;;;;;;1.95;1.72;;;3.20;99.90;;;;;;1817212;79;21520;-77
2022/01/20 07:49:40;;;;;;;2.30;1.70;;;3.20;99.90;;;;;;1817265;79;21132;-76
2022/01/20 07:52:10;;;;;;;4.33;2.08;;;3.00;99.90;;;;;;1817172;79;21202;-75
2022/01/20 07:54:37;;;;;;;4.37;1.70;;;2.90;99.90;;;;;;1817083;78;21096;-75
2022/01/20 07:57:05;;;;;;;2.22;1.50;;;2.90;99.90;;;;;;1817264;79;21143;-76
2022/01/20 07:59:32;;;;;;;3.47;1.70;;;2.90;99.90;;;;;;1817054;79;21078;-75
2022/01/20 08:02:00;;;;;;;2.25;1.90;;;2.80;99.90;;;;;;1817033;79;21124;-74
2022/01/20 08:04:27;;;;;;;2.58;1.67;;;2.90;99.90;;;;;;1816932;79;21093;-76
2022/01/20 08:06:54;;;;;;;3.40;1.80;;;3.00;99.90;;;;;;1816972;79;21069;-76
2022/01/20 08:09:23;;;;;;;2.75;2.00;;;3.20;99.90;;;;;;1816967;79;21040;-75
2022/01/20 08:11:51;;;;;;;3.72;1.87;;;3.40;99.90;;;;;;1773146;78;21473;-74
2022/01/20 08:14:18;;;;;;;4.28;2.20;;;3.50;99.90;;;;;;1817783;78;21086;-76
2022/01/20 08:16:46;;;;;;;4.70;2.12;;;3.60;99.90;;;;;;1816880;79;21454;-75
2022/01/20 08:19:13;;;;;;;6.45;1.72;;;3.60;99.90;;;;;;1817000;79;21065;-75
2022/01/20 08:21:42;;;;;;;3.45;1.92;;;3.70;99.90;;;;;;1817036;79;21057;-77
2022/01/20 08:24:09;;;;;;;3.35;2.22;;;3.80;99.90;;;;;;1789164;76;21085;-77
2022/01/20 08:26:36;;;;;;;5.78;2.00;;;3.90;99.90;;;;;;1818615;78;21049;-76
2022/01/20 08:29:04;;;;;;;6.83;2.42;;;4.00;99.90;;;;;;1817229;79;21124;-77
2022/01/20 08:31:31;;;;;;;3.77;2.08;;;4.20;99.90;;;;;;1817265;79;21147;-77
2022/01/20 08:34:00;;;;;;;5.17;2.20;;;4.40;99.90;;;;;;1817299;79;21127;-77
2022/01/20 08:36:29;;;;;;;5.65;2.20;;;4.40;99.90;;;;;;1817273;79;21541;-78
2022/01/20 08:38:57;;;;;;;5.60;2.05;;;4.40;99.90;;;;;;1817544;79;21078;-76
2022/01/20 08:41:24;;;;;;;6.95;2.00;;;4.50;99.90;;;;;;1817297;79;21144;-76
2022/01/20 08:43:51;;;;;;;4.15;2.27;;;4.40;99.90;;;;;;1817158;79;21058;-77
2022/01/20 08:46:21;;;;;;;8.18;2.67;;;4.50;99.90;;;;;;1817164;79;21115;-77
2022/01/20 08:48:48;;;;;;;3.67;2.12;;;4.50;99.90;;;;;;1817295;79;21116;-76
2022/01/20 08:51:15;;;;;;;11.38;2.85;;;4.50;99.90;;;;;;1817169;79;21115;-76
2022/01/20 08:53:42;;;;;;;5.42;2.08;;;4.40;99.90;;;;;;1817076;79;21074;-76
2022/01/20 08:56:10;;;;;;;5.75;2.45;;;4.40;99.90;;;;;;1817226;79;21031;-76
2022/01/20 08:58:37;;;;;;;9.35;3.00;;;4.40;99.90;;;;;;1817344;79;21485;-76
2022/01/20 09:01:05;;;;;;;7.28;2.87;;;4.50;99.90;;;;;;1817382;79;21523;-77
2022/01/20 09:03:33;;;;;;;13.48;2.83;;;4.50;99.90;;;;;;1817219;79;21056;-76
2022/01/20 09:06:02;;;;;;;6.42;2.77;;;4.50;99.90;;;;;;1817269;79;21058;-76
2022/01/20 09:08:29;;;;;;;8.73;2.30;;;4.50;99.90;;;;;;1817331;79;21128;-75
2022/01/20 09:10:57;;;;;;;4.95;2.40;;;4.50;99.90;;;;;;1817096;79;21131;-76
2022/01/20 09:16:09;;;;;;;5.33;2.50;;;4.60;99.90;;;;;;1816999;79;21159;-73
2022/01/20 09:18:36;;;;;;;9.70;2.70;;;4.60;99.90;;;;;;1817092;79;21061;-76
2022/01/20 09:21:04;;;;;;;8.20;3.12;;;4.60;99.90;;;;;;1817059;79;21509;-75
2022/01/20 09:23:31;;;;;;;11.97;2.87;;;4.60;99.90;;;;;;1820048;78;21151;-75
2022/01/20 09:25:59;;;;;;;12.73;2.67;;;4.80;99.90;;;;;;1817047;79;21160;-75
2022/01/20 09:28:27;;;;;;;9.30;2.47;;;4.90;99.90;;;;;;1817198;79;21062;-74
2022/01/20 09:30:58;;;;;;;8.30;2.20;;;4.90;99.90;;;;;;1817024;79;21543;-74
2022/01/20 09:33:28;;;;;;;8.35;2.47;;;5.10;99.90;;;;;;1816757;79;21176;-76
2022/01/20 09:35:56;;;;;;;4.15;2.30;;;5.20;99.90;;;;;;1817026;78;21148;-75
2022/01/20 09:38:23;;;;;;;7.62;2.58;;;5.10;99.90;;;;;;1816955;79;21053;-75
2022/01/20 09:40:50;;;;;;;6.00;2.47;;;5.20;99.90;;;;;;1817057;79;21151;-72
2022/01/20 09:43:18;;;;;;;6.22;2.52;;;5.20;99.90;;;;;;1816897;79;21105;-75
2022/01/20 09:45:48;;;;;;;11.57;3.35;;;5.10;99.90;;;;;;1816935;79;21058;-73
2022/01/20 09:48:16;;;;;;;6.97;2.37;;;5.10;99.90;;;;;;1816952;78;21031;-74
2022/01/20 09:50:43;;;;;;;9.05;2.45;;;5.10;99.90;;;;;;1816892;79;21038;-73
2022/01/20 09:53:11;;;;;;;9.40;2.60;;;5.00;99.90;;;;;;1817038;79;21210;-75
2022/01/20 09:55:38;;;;;;;6.78;2.58;;;5.10;99.90;;;;;;1816818;79;21175;-75
2022/01/20 09:58:06;;;;;;;9.80;2.20;;;4.90;99.90;;;;;;1816936;79;21189;-75
2022/01/20 10:00:33;;;;;;;5.78;2.35;;;5.00;99.90;;;;;;1816757;79;21049;-75
2022/01/20 10:03:12;;;;;;;11.43;2.70;;;5.20;99.90;;;;;;1817098;79;21061;-76
2022/01/20 10:05:44;;;;;;;8.75;2.62;;;5.20;99.90;;;;;;1817004;79;21458;-75
2022/01/20 10:08:14;;;;;;;13.58;3.20;;;5.30;99.90;;;;;;1817240;79;21042;-74
2022/01/20 10:10:56;;;;;;;4.70;1.87;;;5.40;99.90;;;;;;1817477;79;21082;-74
2022/01/20 10:13:26;;;;;;;7.87;2.50;;;5.40;99.90;;;;;;1813886;79;21058;-74
2022/01/20 10:16:06;;;;;;;4.53;1.85;;;5.40;99.90;;;;;;1806937;77;21132;-74
2022/01/20 10:18:36;;;;;;;10.75;3.00;;;5.40;99.90;;;;;;1817498;79;21078;-74
2022/01/20 10:21:05;;;;;;;5.67;2.02;;;5.40;99.90;;;;;;1817627;79;21112;-75
2022/01/20 10:23:41;;;;;;;14.45;2.77;;;5.40;99.90;;;;;;1817472;79;21069;-73
2022/01/20 10:26:12;;;;;;;7.10;2.27;;;5.30;99.90;;;;;;1815890;79;21101;-74
2022/01/20 10:28:54;;;;;;;10.93;2.75;;;5.40;99.90;;;;;;1817704;79;21057;-75
2022/01/20 10:31:33;;;;;;;6.62;2.55;;;5.30;99.90;;;;;;1817335;79;21488;-74
2022/01/20 10:34:01;;;;;;;7.03;2.52;;;5.30;99.90;;;;;;1809520;77;21089;-75
2022/01/20 10:36:28;;;;;;;7.62;2.27;;;5.30;99.90;;;;;;1837485;78;21109;-75
2022/01/20 10:38:58;;;;;;;7.05;2.20;;;5.30;99.90;;;;;;1836833;78;21470;-75
2022/01/20 10:41:36;;;;;;;7.42;2.50;;;5.30;99.90;;;;;;1836920;78;21030;-74
2022/01/20 10:44:14;;;;;;;12.50;3.10;;;5.30;99.90;;;;;;1826977;77;21199;-74
2022/01/20 10:46:50;;;;;;;8.53;2.67;;;5.40;99.90;;;;;;1840828;78;21054;-75
2022/01/20 10:49:17;;;;;;;7.25;2.42;;;5.40;99.90;;;;;;1845693;78;21054;-73
2022/01/20 10:51:57;;;;;;;10.68;2.85;;;5.50;99.90;;;;;;1845679;77;21065;-74
2022/01/20 10:54:24;;;;;;;13.32;3.02;;;5.50;99.90;;;;;;1825545;77;21200;-76
2022/01/20 10:56:55;;;;;;;13.03;2.72;;;5.70;99.90;;;;;;1845110;78;21457;-74
2022/01/20 10:59:23;;;;;;;12.98;2.08;;;5.80;99.90;;;;;;1791240;77;21566;-74
2022/01/20 11:02:05;;;;;;;19.82;3.10;;;5.60;99.90;;;;;;1809520;78;21053;-73
2022/01/20 11:04:32;;;;;;;8.88;2.60;;;5.60;99.90;;;;;;1813350;78;21473;-72
2022/01/20 11:07:07;;;;;;;6.10;2.12;;;5.60;99.90;;;;;;1817346;79;21519;-74
2022/01/20 11:09:34;;;;;;;9.30;2.55;;;5.60;99.90;;;;;;1817889;79;21122;-73
2022/01/20 11:12:02;;;;;;;8.35;2.20;;;5.60;99.90;;;;;;1819739;79;21082;-74
2022/01/20 11:14:30;;;;;;;5.67;2.33;;;5.70;99.90;;;;;;1817230;79;21094;-74
2022/01/20 11:16:58;;;;;;;8.65;2.20;;;5.80;99.90;;;;;;1817230;79;21450;-73
2022/01/20 11:19:26;;;;;;;6.47;2.22;;;5.90;99.90;;;;;;1817274;79;21127;-72
2022/01/20 11:21:55;;;;;;;10.90;1.90;;;5.90;99.90;;;;;;1817387;79;21128;-74
2022/01/20 11:24:24;;;;;;;7.95;2.52;;;5.80;99.90;;;;;;1772559;79;21541;-74
2022/01/20 11:26:53;;;;;;;8.88;2.27;;;5.70;99.90;;;;;;1800212;80;21105;-75
2022/01/20 11:29:22;;;;;;;6.25;2.37;;;5.70;99.90;;;;;;1800281;80;21129;-74
2022/01/20 11:31:50;;;;;;;6.50;2.20;;;5.50;99.90;;;;;;1800525;80;21563;-74
2022/01/20 11:34:19;;;;;;;4.47;1.92;;;5.50;99.90;;;;;;1800424;80;21090;-74
2022/01/20 11:36:49;;;;;;;5.08;2.08;;;5.50;99.90;;;;;;1800885;79;21062;-74
2022/01/20 11:39:18;;;;;;;9.35;2.70;;;5.50;99.90;;;;;;1800319;79;21129;-75
2022/01/20 11:41:49;;;;;;;4.87;2.07;;;5.40;99.90;;;;;;1800752;80;21055;-75
2022/01/20 11:44:18;;;;;;;7.58;2.62;;;5.40;99.90;;;;;;1800159;79;21078;-76
2022/01/20 11:46:49;;;;;;;8.68;2.22;;;5.40;99.90;;;;;;1809751;77;21090;-76
2022/01/20 11:49:19;;;;;;;12.18;2.47;;;5.30;99.90;;;;;;1813281;79;21089;-76
2022/01/20 11:51:49;;;;;;;10.70;2.80;;;5.30;99.90;;;;;;1817346;79;21065;-75
2022/01/20 11:54:31;;;;;;;9.80;2.08;;;5.50;99.90;;;;;;1817140;79;21488;-75
2022/01/20 11:57:10;;;;;;;8.55;2.52;;;5.70;99.90;;;;;;1816961;79;21184;-74
2022/01/20 11:59:43;;;;;;;6.65;2.35;;;6.00;99.90;;;;;;1817017;79;21469;-73
2022/01/20 12:02:11;;;;;;;7.97;2.12;;;6.60;99.90;;;;;;1817006;79;21082;-74
2022/01/20 12:04:41;;;;;;;12.58;2.37;;;6.80;99.90;;;;;;1816958;79;21144;-73
2022/01/20 12:07:11;;;;;;;9.80;2.55;;;6.70;99.90;;;;;;1817074;79;21589;-75
2022/01/20 12:09:40;;;;;;;6.08;2.12;;;6.40;99.90;;;;;;1803053;77;21118;-74
2022/01/20 12:12:23;;;;;;;9.35;1.90;;;6.40;99.90;;;;;;1810442;78;21122;-73
2022/01/20 12:14:51;;;;;;;12.63;1.98;;;6.40;99.90;;;;;;1824270;78;21521;-74
2022/01/20 12:17:18;;;;;;;8.20;2.50;;;6.30;99.90;;;;;;1817030;79;21084;-74
2022/01/20 12:19:56;;;;;;;5.80;2.10;;;6.20;99.90;;;;;;1816873;79;21135;-74
2022/01/20 12:22:23;;;;;;;5.37;1.87;;;6.00;99.90;;;;;;1816853;79;21065;-74
2022/01/20 12:24:53;;;;;;;6.78;2.05;;;6.10;99.90;;;;;;1816956;79;21135;-74
2022/01/20 12:27:21;;;;;;;9.78;2.20;;;6.00;99.90;;;;;;1809549;77;21097;-74
2022/01/20 12:29:48;;;;;;;8.08;2.12;;;5.90;99.90;;;;;;1812991;78;21070;-74
2022/01/20 12:32:20;;;;;;;6.92;1.87;;;5.80;99.90;;;;;;1817035;79;21058;-73
2022/01/20 12:35:03;;;;;;;1.30;0.70;;;5.80;99.90;;;;;;1816891;79;21417;-74
2022/01/20 12:37:39;;;;;;;2.95;0.95;;;5.20;99.90;;;;;;1816885;79;21563;-74
2022/01/20 12:40:08;;;;;;;2.33;0.90;;;4.40;99.90;;;;;;1816168;76;21058;-74
2022/01/20 12:42:37;;;;;;;3.00;1.07;;;4.20;99.90;;;;;;1817065;79;21128;-74
2022/01/20 12:47:33;;;;;;;2.42;1.02;;;3.70;99.90;;;;;;1799348;78;21584;-75
2022/01/20 12:50:01;;;;;;;2.15;0.95;;;3.40;99.90;;;;;;1816987;79;21123;-73
2022/01/20 12:52:31;;;;;;;4.67;1.32;;;3.30;99.90;;;;;;1817037;79;21214;-74
2022/01/20 12:54:58;;;;;;;4.30;0.90;;;3.10;99.90;;;;;;1816994;79;21572;-74
2022/01/20 12:57:25;;;;;;;4.12;1.42;;;3.00;99.90;;;;;;1817039;79;21136;-74
2022/01/20 12:59:57;;;;;;;2.95;1.45;;;2.90;99.90;;;;;;1816910;79;21030;-74
2022/01/20 13:02:27;;;;;;;5.87;1.60;;;2.80;99.90;;;;;;1816741;79;21102;-73
2022/01/20 13:05:00;;;;;;;3.75;1.98;;;2.60;99.90;;;;;;1816871;78;21206;-72
2022/01/20 13:07:28;;;;;;;7.50;2.30;;;2.70;99.90;;;;;;1809819;77;21172;-72
2022/01/20 13:10:07;;;;;;;5.10;1.55;;;2.80;99.90;;;;;;1816036;79;21069;-72
2022/01/20 13:12:35;;;;;;;5.83;1.25;;;2.80;99.90;;;;;;1816676;79;21169;-75
2022/01/20 13:15:03;;;;;;;6.28;1.75;;;2.80;99.90;;;;;;1816841;78;21065;-74
2022/01/20 13:17:32;;;;;;;5.58;1.60;;;2.80;99.90;;;;;;1817023;79;21046;-73
2022/01/20 13:20:00;;;;;;;8.10;1.85;;;2.80;99.90;;;;;;1816955;79;21074;-75
2022/01/20 13:22:41;;;;;;;7.30;1.80;;;2.90;99.90;;;;;;1816970;79;21062;-73
2022/01/20 13:25:15;;;;;;;4.50;1.77;;;3.00;99.90;;;;;;1817224;78;21213;-74
2022/01/20 13:27:52;;;;;;;7.78;1.75;;;3.00;99.90;;;;;;1817090;79;21057;-74
2022/01/20 13:30:37;;;;;;;6.30;1.98;;;3.10;99.90;;;;;;1816971;79;21120;-74
2022/01/20 13:33:05;;;;;;;4.25;1.87;;;3.10;99.90;;;;;;1815436;78;21121;-74
2022/01/20 13:35:40;;;;;;;5.70;1.60;;;3.20;99.90;;;;;;1817024;79;21516;-75
2022/01/20 13:38:08;;;;;;;6.17;2.00;;;3.10;99.90;;;;;;1816991;79;21066;-72
2022/01/20 13:40:37;;;;;;;16.32;1.98;;;3.10;99.90;;;;;;1816841;79;21171;-74
2022/01/20 13:45:43;;;;;;;15.38;4.90;;;3.20;99.90;;;;;;1809051;77;21172;-73
2022/01/20 13:48:12;;;;;;;6.58;2.42;;;3.30;99.90;;;;;;1812450;78;21169;-75
2022/01/20 13:50:44;;;;;;;14.03;2.20;;;3.20;99.90;;;;;;1816821;79;21478;-74
2022/01/20 13:53:17;;;;;;;11.53;2.10;;;3.20;99.90;;;;;;1816839;79;21026;-73
2022/01/20 13:55:47;;;;;;;4.78;2.02;;;3.20;99.90;;;;;;1816159;79;21146;-74
2022/01/20 13:58:31;;;;;;;8.83;2.47;;;3.20;99.90;;;;;;1817081;79;21391;-74
2022/01/20 14:01:00;;;;;;;10.72;2.45;;;3.20;99.90;;;;;;1816818;79;21034;-75
2022/01/20 14:03:27;;;;;;;12.95;2.50;;;3.30;99.90;;;;;;1816983;79;21189;-74
2022/01/20 14:05:55;;;;;;;4.58;1.72;;;3.30;99.90;;;;;;1816886;79;21548;-76
2022/01/20 14:08:25;;;;;;;10.93;3.10;;;3.30;99.90;;;;;;1816926;79;21027;-75
2022/01/20 14:10:53;;;;;;;5.40;2.30;;;3.40;99.90;;;;;;1816823;79;21038;-74